createdAt,value
2019-03-10T00:04:58.248Z,99707.42
2019-03-10T00:10:04.430Z,99709.25
2019-03-10T00:15:24.843Z,99702.67
2019-03-10T00:20:29.838Z,99713.23
2019-03-10T00:25:35.220Z,99709.55
2019-03-10T00:30:40.596Z,99723.00
2019-03-10T00:35:46.140Z,99733.28
2019-03-10T00:41:14.255Z,99745.69
2019-03-10T00:46:59.894Z,99742.24
2019-03-10T00:52:14.306Z,99730.91
2019-03-10T00:57:19.916Z,99722.45
2019-03-10T01:02:25.038Z,99710.07
2019-03-10T01:07:31.384Z,99723.77
2019-03-10T01:12:39.177Z,99716.39
2019-03-10T01:17:44.457Z,99714.54
2019-03-10T01:22:49.462Z,99703.21
2019-03-10T01:27:55.295Z,99709.27
2019-03-10T01:33:33.859Z,99694.75
2019-03-10T01:38:38.952Z,99700.29
2019-03-10T01:43:44.028Z,99691.88
2019-03-10T01:48:49.037Z,99670.77
2019-03-10T01:53:54.146Z,99672.32
2019-03-10T01:58:59.734Z,99664.16
2019-03-10T02:04:04.842Z,99662.02
2019-03-10T02:09:11.318Z,99646.73
2019-03-10T02:14:17.374Z,99644.59
2019-03-10T02:19:22.468Z,99648.83
2019-03-10T02:24:27.884Z,99644.84
2019-03-10T02:29:34.842Z,99635.86
2019-03-10T02:34:39.888Z,99630.59
2019-03-10T02:39:44.916Z,99627.94
2019-03-10T02:45:00.699Z,99621.60
2019-03-10T02:50:06.635Z,99594.12
2019-03-10T02:55:12.016Z,99591.73
2019-03-10T03:00:17.307Z,99586.98
2019-03-10T03:05:22.405Z,99576.66
2019-03-10T03:10:27.726Z,99570.05
2019-03-10T03:15:32.770Z,99570.52
2019-03-10T03:20:37.969Z,99555.22
2019-03-10T03:25:43.092Z,99548.37
2019-03-10T03:30:48.172Z,99549.16
2019-03-10T03:36:20.566Z,99550.79
2019-03-10T03:41:25.565Z,99541.28
2019-03-10T03:46:36.388Z,99544.16
2019-03-10T03:51:42.521Z,99536.80
2019-03-10T03:56:47.673Z,99528.31
2019-03-10T04:01:56.704Z,99519.64
2019-03-10T04:07:02.400Z,99510.88
2019-03-10T04:12:07.911Z,99502.15
2019-03-10T04:17:12.870Z,99495.81
2019-03-10T04:22:18.251Z,99486.48
2019-03-10T04:27:23.214Z,99490.86
2019-03-10T04:32:28.614Z,99480.05
2019-03-10T04:37:34.346Z,99472.72
2019-03-10T04:42:39.498Z,99467.43
2019-03-10T04:47:45.723Z,99452.13
2019-03-10T04:52:50.766Z,99452.64
2019-03-10T04:57:58.733Z,99459.23
2019-03-10T05:03:03.761Z,99456.56
2019-03-10T05:08:08.790Z,99453.97
2019-03-10T05:19:00.479Z,99450.33
2019-03-10T05:24:15.605Z,99438.98
2019-03-10T05:29:21.229Z,99430.56
2019-03-10T05:34:26.269Z,99413.64
2019-03-10T05:39:32.738Z,99409.39
2019-03-10T05:44:37.738Z,99394.61
2019-03-10T05:49:44.157Z,99387.23
2019-03-10T05:54:49.659Z,99376.94
2019-03-10T05:59:55.128Z,99373.18
2019-03-10T06:05:06.190Z,99372.14
2019-03-10T06:10:12.236Z,99354.69
2019-03-10T06:15:17.515Z,99336.50
2019-03-10T06:20:22.942Z,99330.08
2019-03-10T06:25:28.393Z,99317.11
2019-03-10T06:30:35.372Z,99306.52
2019-03-10T06:35:40.538Z,99293.00
2019-03-10T06:40:46.195Z,99280.84
2019-03-10T06:45:51.311Z,99276.92
2019-03-10T06:50:56.747Z,99257.14
2019-03-10T06:56:02.975Z,99251.25
2019-03-10T07:01:08.184Z,99249.06
2019-03-10T07:06:13.696Z,99253.09
2019-03-10T07:11:21.873Z,99253.05
2019-03-10T07:16:27.360Z,99247.52
2019-03-10T07:21:32.494Z,99240.63
2019-03-10T07:26:37.565Z,99234.08
2019-03-10T07:32:04.439Z,99224.03
2019-03-10T07:37:21.588Z,99224.90
2019-03-10T07:42:40.726Z,99213.27
2019-03-10T07:47:57.207Z,99204.12
2019-03-10T07:53:24.305Z,99198.35
2019-03-10T07:58:44.264Z,99187.79
2019-03-10T08:04:17.691Z,99183.57
2019-03-10T08:09:41.681Z,99176.77
2019-03-10T08:15:19.510Z,99160.41
2019-03-10T08:20:40.824Z,99151.88
2019-03-10T08:26:04.125Z,99143.83
2019-03-10T08:31:37.417Z,99137.55
2019-03-10T08:36:55.362Z,99128.79
2019-03-10T08:42:20.469Z,99121.52
2019-03-10T08:47:33.533Z,99097.62
2019-03-10T08:52:45.973Z,99092.45
2019-03-10T08:58:22.302Z,99084.82
2019-03-10T09:03:56.752Z,99076.16
2019-03-10T09:09:20.977Z,99069.85
2019-03-10T09:14:41.748Z,99052.47
2019-03-10T09:20:01.624Z,99056.11
2019-03-10T09:25:26.747Z,99040.66
2019-03-10T09:31:08.996Z,99029.59
2019-03-10T09:36:30.899Z,99017.39
2019-03-10T09:41:57.811Z,98990.48
2019-03-10T09:47:16.173Z,98988.80
2019-03-10T09:52:52.741Z,98979.75
2019-03-10T09:58:12.103Z,98954.08
2019-03-10T10:03:54.303Z,98941.87
2019-03-10T10:09:14.831Z,98924.92
2019-03-10T10:14:42.029Z,98909.47
2019-03-10T10:19:59.560Z,98889.19
2019-03-10T10:25:21.686Z,98879.97
2019-03-10T10:30:54.697Z,98868.22
2019-03-10T10:36:18.791Z,98840.03
2019-03-10T10:41:46.403Z,98832.17
2019-03-10T10:47:10.423Z,98815.47
2019-03-10T10:52:49.842Z,98788.48
2019-03-10T10:58:12.851Z,98785.19
2019-03-10T11:03:41.623Z,98767.47
2019-03-10T11:09:12.040Z,98747.09
2019-03-10T11:15:05.314Z,98725.00
2019-03-10T11:20:24.009Z,98706.95
2019-03-10T11:25:41.892Z,98679.60
2019-03-10T11:31:08.795Z,98663.41
2019-03-10T11:36:31.967Z,98623.24
2019-03-10T11:42:01.912Z,98615.80
2019-03-10T11:47:25.955Z,98590.47
2019-03-10T11:52:44.830Z,98585.60
2019-03-10T11:58:00.549Z,98590.28
2019-03-10T12:03:28.909Z,98580.52
2019-03-10T12:09:05.455Z,98570.69
2019-03-10T12:14:11.462Z,98537.13
2019-03-10T12:19:18.674Z,98521.52
2019-03-10T12:24:23.857Z,98474.39
2019-03-10T12:29:29.183Z,98471.16
2019-03-10T12:34:34.305Z,98473.40
2019-03-10T12:39:39.489Z,98465.94
2019-03-10T12:44:45.160Z,98449.66
2019-03-10T12:49:50.304Z,98433.77
2019-03-10T12:55:05.870Z,98427.06
2019-03-10T13:00:13.344Z,98430.91
2019-03-10T13:05:18.377Z,98430.20
2019-03-10T13:10:24.073Z,98415.02
2019-03-10T13:15:29.625Z,98395.02
2019-03-10T13:20:35.295Z,98387.84
2019-03-10T13:25:41.445Z,98374.46
2019-03-10T13:30:46.773Z,98344.43
2019-03-10T13:35:52.033Z,98336.41
2019-03-10T13:40:57.607Z,98332.92
2019-03-10T13:46:03.249Z,98330.44
2019-03-10T13:51:09.181Z,98316.16
2019-03-10T13:56:14.788Z,98308.72
2019-03-10T14:01:19.811Z,98291.96
2019-03-10T14:06:23.985Z,98271.89
2019-03-10T14:11:29.183Z,98270.47
2019-03-10T14:16:33.653Z,98264.61
2019-03-10T14:21:37.655Z,98270.56
2019-03-10T14:26:42.887Z,98256.87
2019-03-10T14:31:47.973Z,98271.02
2019-03-10T14:36:53.295Z,98260.34
2019-03-10T14:41:58.621Z,98253.77
2019-03-10T14:47:03.995Z,98252.08
2019-03-10T14:52:14.356Z,98229.78
2019-03-10T14:57:21.533Z,98228.01
2019-03-10T15:02:27.184Z,98227.47
2019-03-10T15:07:32.791Z,98211.59
2019-03-10T15:12:38.187Z,98184.54
2019-03-10T15:17:44.237Z,98184.90
2019-03-10T15:22:54.323Z,98186.79
2019-03-10T15:27:59.388Z,98180.36
2019-03-10T15:33:05.088Z,98187.06
2019-03-10T15:38:10.439Z,98150.72
2019-03-10T15:43:15.975Z,98171.25
2019-03-10T15:48:21.557Z,98161.76
2019-03-10T15:53:26.579Z,98164.63
2019-03-10T15:58:32.613Z,98183.90
2019-03-10T16:03:43.831Z,98181.38
2019-03-10T16:08:49.130Z,98192.88
2019-03-10T16:13:54.899Z,98199.30
2019-03-10T16:19:00.161Z,98191.64
2019-03-10T16:24:06.355Z,98185.77
2019-03-10T16:29:11.839Z,98186.87
2019-03-10T16:34:17.427Z,98238.53
2019-03-10T16:39:23.151Z,98204.33
2019-03-10T16:44:28.691Z,98211.18
2019-03-10T16:49:34.453Z,98215.06
2019-03-10T16:54:39.584Z,98226.69
2019-03-10T16:59:45.612Z,98209.91
2019-03-10T17:04:51.437Z,98230.63
2019-03-10T17:09:56.976Z,98220.77
2019-03-10T17:15:12.543Z,98228.16
2019-03-10T17:20:19.127Z,98204.92
2019-03-10T17:25:24.560Z,98249.05
2019-03-10T17:30:31.103Z,98231.97
2019-03-10T17:35:36.467Z,98245.78
2019-03-10T17:40:42.212Z,98274.11
2019-03-10T17:45:47.511Z,98297.59
2019-03-10T17:50:52.981Z,98266.88
2019-03-10T17:55:58.154Z,98330.61
2019-03-10T18:01:03.941Z,98315.14
2019-03-10T18:06:22.418Z,98298.55
2019-03-10T18:11:28.262Z,98320.88
2019-03-10T18:16:33.749Z,98332.27
2019-03-10T18:21:39.446Z,98346.31
2019-03-10T18:26:45.055Z,98359.78
2019-03-10T18:31:50.181Z,98332.77
2019-03-10T18:36:55.771Z,98334.66
2019-03-10T18:42:01.103Z,98361.59
2019-03-10T18:47:19.564Z,98396.58
2019-03-10T18:52:24.745Z,98389.23
2019-03-10T18:57:30.208Z,98380.50
2019-03-10T19:02:36.253Z,98401.23
2019-03-10T19:07:42.646Z,98407.66
2019-03-10T19:12:46.864Z,98408.31
2019-03-10T19:17:50.963Z,98410.05
2019-03-10T19:22:56.011Z,98408.44
2019-03-10T19:28:00.432Z,98453.68
2019-03-10T19:33:06.008Z,98477.77
2019-03-10T19:38:16.751Z,98454.08
2019-03-10T19:43:23.122Z,98434.04
2019-03-10T19:48:28.362Z,98488.62
2019-03-10T19:53:33.119Z,98507.45
2019-03-10T19:58:42.000Z,98566.56
2019-03-10T20:03:48.933Z,98626.38
2019-03-10T20:08:55.425Z,98711.23
2019-03-10T20:14:01.353Z,98735.75
2019-03-10T20:19:06.545Z,98832.81
2019-03-10T20:24:14.109Z,98922.73
2019-03-10T20:29:20.546Z,98960.63
2019-03-10T20:34:28.331Z,98991.25
2019-03-10T20:39:36.135Z,99042.55
2019-03-10T20:44:40.574Z,99102.22
2019-03-10T20:49:47.375Z,99130.88
2019-03-10T20:54:56.603Z,99183.16
2019-03-10T21:00:05.531Z,99202.63
2019-03-10T21:05:13.809Z,99224.42
2019-03-10T21:10:20.070Z,99258.59
2019-03-10T21:15:43.567Z,99286.19
2019-03-10T21:20:49.590Z,99304.86
2019-03-10T21:26:03.638Z,99334.02
2019-03-10T21:31:10.983Z,99347.70
2019-03-10T21:36:18.097Z,99377.92
2019-03-10T21:41:23.865Z,99390.81
2019-03-10T21:46:49.900Z,99396.34
2019-03-10T21:51:56.003Z,99411.58
2019-03-10T21:57:02.150Z,99431.03
2019-03-10T22:02:07.901Z,99439.16
2019-03-10T22:07:15.211Z,99444.98
2019-03-10T22:12:20.233Z,99439.20
2019-03-10T22:17:35.479Z,99455.79
2019-03-10T22:22:48.181Z,99454.99
2019-03-10T22:27:50.040Z,99473.69
2019-03-10T22:32:55.634Z,99482.13
2019-03-10T22:38:02.371Z,99490.50
2019-03-10T22:43:07.965Z,99495.23
2019-03-10T22:48:14.107Z,99502.83
2019-03-10T22:53:19.222Z,99500.97
2019-03-10T22:58:24.379Z,99510.43
2019-03-10T23:03:30.033Z,99505.72
2019-03-10T23:08:36.726Z,99522.27
2019-03-10T23:13:41.999Z,99522.01
2019-03-10T23:18:46.952Z,99529.37
2019-03-10T23:23:52.067Z,99539.63
2019-03-10T23:28:57.525Z,99538.88
2019-03-10T23:34:02.687Z,99555.72
2019-03-10T23:39:07.705Z,99564.41
2019-03-10T23:44:13.295Z,99559.93
2019-03-10T23:49:18.355Z,99572.03
2019-03-10T23:54:24.219Z,99577.25
2019-03-10T23:59:29.180Z,99595.09
